Time;durP1;ratioP1;P1;durP2;ratioP2;P2;SDS_P1;SDS_P2;PMS_P1;PMS_P2;Temp;Humidity;BMP_temperature;BMP_pressure;BME280_temperature;BME280_humidity;BME280_pressure;Samples;Min_cycle;Max_cycle;Signal;HPM_P1;HPM_P2
2022/01/28 00:02:15;;;;;;;0.28;0.20;;;;;;;5.05;94.41;102565.91;5023794;28;20058;-73
2022/01/28 00:04:42;;;;;;;11.30;2.55;;;;;;;5.02;93.85;102567.75;5029853;28;20043;-72
2022/01/28 00:07:09;;;;;;;1.45;0.55;;;;;;;5.04;94.24;102577.25;5035959;28;20079;-74
2022/01/28 00:09:36;;;;;;;9.18;0.65;;;;;;;4.97;94.19;102585.25;5040713;28;20057;-72
2022/01/28 00:12:03;;;;;;;3.05;0.45;;;;;;;5.02;93.94;102581.66;5043086;28;20021;-72
2022/01/28 00:14:38;;;;;;;5.38;1.50;;;;;;;4.93;94.59;102589.72;5044064;28;20033;-71
2022/01/28 00:17:37;;;;;;;5.05;0.90;;;;;;;4.88;94.28;102601.97;5044611;28;20044;-73
2022/01/28 00:20:58;;;;;;;3.58;1.17;;;;;;;4.89;94.01;102613.25;5030112;28;20049;-72
2022/01/28 00:37:01;;;;;;;3.67;1.15;;;;;;;4.81;93.01;102655.09;5020341;28;20056;-72
2022/01/28 00:39:27;;;;;;;8.40;0.88;;;;;;;4.84;92.58;102652.44;5021693;28;20052;-72
2022/01/28 00:41:54;;;;;;;1.05;0.73;;;;;;;4.79;92.27;102658.66;5023910;28;20045;-73
2022/01/28 00:44:21;;;;;;;4.32;1.17;;;;;;;4.68;92.59;102659.81;5024959;28;20033;-73
2022/01/28 00:46:49;;;;;;;8.85;1.25;;;;;;;4.71;92.59;102659.75;5031009;28;20534;-73
2022/01/28 00:49:16;;;;;;;1.65;0.60;;;;;;;4.76;92.17;102658.72;5027451;28;20128;-73
2022/01/28 00:51:45;;;;;;;5.75;1.02;;;;;;;4.68;91.68;102660.66;5024766;28;20095;-73
2022/01/28 00:54:11;;;;;;;1.90;1.13;;;;;;;4.63;91.69;102661.69;5018725;28;20057;-73
2022/01/28 00:56:38;;;;;;;2.17;1.10;;;;;;;4.52;91.95;102674.94;5019144;28;20057;-73
2022/01/28 00:59:05;;;;;;;3.28;1.10;;;;;;;4.47;92.22;102675.97;5019444;28;20049;-74
2022/01/28 01:01:31;;;;;;;1.05;0.65;;;;;;;4.47;91.88;102681.16;5022716;28;20134;-72
2022/01/28 01:04:00;;;;;;;6.25;1.13;;;;;;;4.39;91.99;102683.09;5020688;28;20059;-74
2022/01/28 01:06:27;;;;;;;5.68;2.28;;;;;;;4.40;92.29;102688.25;5020735;28;20136;-73
2022/01/28 01:08:54;;;;;;;5.93;0.30;;;;;;;4.35;92.43;102676.22;5020144;28;20558;-73
2022/01/28 01:11:22;;;;;;;8.77;0.85;;;;;;;4.30;92.08;102686.72;5018128;28;20045;-72
2022/01/28 01:13:50;;;;;;;2.47;1.10;;;;;;;4.35;91.69;102686.63;5021882;28;20068;-73
2022/01/28 01:16:23;;;;;;;1.55;0.63;;;;;;;4.24;92.46;102689.47;5023837;28;20049;-73
2022/01/28 01:18:54;;;;;;;2.65;1.20;;;;;;;4.04;92.56;102680.41;5020337;28;20419;-73
2022/01/28 01:21:25;;;;;;;6.68;1.02;;;;;;;4.20;92.39;102682.63;5027966;28;20057;-73
2022/01/28 01:23:54;;;;;;;10.43;1.27;;;;;;;4.26;92.31;102679.03;5029544;28;20067;-73
2022/01/28 01:26:29;;;;;;;5.18;0.85;;;;;;;4.26;91.76;102692.03;5033781;28;20037;-72
2022/01/28 01:28:56;;;;;;;2.58;0.77;;;;;;;4.13;92.63;102701.84;5027358;28;20079;-73
2022/01/28 01:31:23;;;;;;;8.20;0.70;;;;;;;4.10;92.07;102703.69;5026023;28;20048;-73
2022/01/28 01:33:56;;;;;;;0.50;0.32;;;;;;;4.09;92.49;102709.75;5026816;28;20530;-72
2022/01/28 01:36:24;;;;;;;20.10;2.20;;;;;;;3.93;93.15;102716.16;5021724;28;20626;-72
2022/01/28 01:38:51;;;;;;;11.65;1.50;;;;;;;4.00;92.82;102715.16;5024167;28;20214;-73
2022/01/28 01:41:26;;;;;;;1.48;0.90;;;;;;;4.00;92.86;102725.56;5019204;28;20567;-72
2022/01/28 01:43:59;;;;;;;4.47;0.85;;;;;;;4.07;92.52;102724.53;5025321;28;20048;-73
2022/01/28 01:52:04;;;;;;;6.05;0.93;;;;;;;4.02;92.24;102735.03;5035959;28;20049;-72
2022/01/28 01:54:33;;;;;;;9.85;1.65;;;;;;;4.07;92.48;102742.72;5037012;28;20478;-75
2022/01/28 01:57:02;;;;;;;7.20;1.08;;;;;;;3.93;92.37;102741.31;5039813;28;20056;-73
2022/01/28 01:59:29;;;;;;;6.45;1.65;;;;;;;4.01;92.94;102742.88;5042338;28;20037;-73
2022/01/28 02:01:56;;;;;;;2.95;0.90;;;;;;;4.18;91.87;102740.78;5044484;28;20056;-74
2022/01/28 02:04:24;;;;;;;0.20;0.20;;;;;;;4.27;92.01;102748.38;5035351;28;20574;-74
2022/01/28 02:06:53;;;;;;;8.68;1.40;;;;;;;4.29;91.13;102744.84;5038831;28;20056;-74
2022/01/28 02:09:20;;;;;;;0.93;0.50;;;;;;;4.30;91.50;102743.97;5045221;28;20045;-74
2022/01/28 02:11:46;;;;;;;20.02;1.85;;;;;;;4.27;91.49;102745.78;5041516;28;20767;-74
2022/01/28 02:14:13;;;;;;;2.97;1.48;;;;;;;4.22;91.26;102753.69;5039170;28;20047;-73
2022/01/28 02:16:39;;;;;;;4.65;1.23;;;;;;;4.19;92.12;102755.50;5042574;28;20094;-73
2022/01/28 02:19:06;;;;;;;0.50;0.50;;;;;;;4.24;92.02;102751.91;5043938;28;20045;-75
2022/01/28 02:21:39;;;;;;;2.63;0.93;;;;;;;4.23;91.24;102762.31;5044412;28;20156;-74
2022/01/28 02:24:07;;;;;;;1.48;0.57;;;;;;;4.24;91.70;102756.25;5043874;28;20155;-73
2022/01/28 02:26:35;;;;;;;0.28;0.22;;;;;;;4.30;91.21;102761.34;5048598;28;20091;-75
2022/01/28 02:29:09;;;;;;;7.53;1.00;;;;;;;4.29;91.13;102754.41;5045556;28;20060;-73
2022/01/28 02:31:36;;;;;;;1.23;0.43;;;;;;;4.15;91.20;102746.91;5048043;28;20039;-74
2022/01/28 02:34:05;;;;;;;0.10;0.10;;;;;;;4.23;91.36;102747.59;5078789;28;20045;-74
2022/01/28 02:36:32;;;;;;;1.85;0.90;;;;;;;4.19;91.19;102758.09;5046542;28;20094;-73
2022/01/28 02:39:01;;;;;;;0.80;0.65;;;;;;;4.15;91.63;102754.72;5044475;28;20186;-73
2022/01/28 02:41:33;;;;;;;0.20;0.20;;;;;;;4.11;91.17;102762.59;5045706;28;20115;-74
2022/01/28 02:44:10;;;;;;;6.38;1.10;;;;;;;3.95;92.23;102766.41;5045109;28;20053;-73
2022/01/28 02:46:40;;;;;;;2.45;0.57;;;;;;;3.83;92.77;102766.63;5048994;28;20041;-74
2022/01/28 02:49:09;;;;;;;0.47;0.30;;;;;;;3.75;92.84;102758.13;5055319;28;20447;-74
2022/01/28 02:51:37;;;;;;;3.65;0.73;;;;;;;3.79;93.32;102767.59;5060263;28;20072;-74
2022/01/28 02:54:14;;;;;;;1.25;0.50;;;;;;;3.64;93.12;102762.69;5067879;28;20112;-74
2022/01/28 02:56:48;;;;;;;1.08;0.40;;;;;;;3.53;93.73;102754.22;5049384;28;20068;-75
2022/01/28 02:59:15;;;;;;;2.75;1.15;;;;;;;3.51;94.17;102758.59;5035090;28;20045;-74
2022/01/28 03:01:42;;;;;;;1.40;0.43;;;;;;;3.47;94.42;102769.06;5059237;28;20050;-74
2022/01/28 03:04:11;;;;;;;14.80;2.08;;;;;;;3.37;94.81;102775.31;5026561;28;20053;-74
2022/01/28 03:06:38;;;;;;;2.22;0.40;;;;;;;3.46;95.02;102780.34;5028521;28;20060;-74
2022/01/28 03:09:14;;;;;;;3.85;0.90;;;;;;;3.37;95.11;102778.78;5026682;28;20833;-74
2022/01/28 03:11:46;;;;;;;2.25;0.57;;;;;;;3.46;95.30;102772.53;5058473;28;20056;-73
2022/01/28 03:14:32;;;;;;;1.00;0.85;;;;;;;3.34;94.55;102786.59;5026770;28;20041;-74
2022/01/28 03:17:07;;;;;;;6.70;1.90;;;;;;;3.26;95.70;102793.66;5028618;28;20041;-74
2022/01/28 03:19:45;;;;;;;15.07;2.08;;;;;;;3.27;96.07;102790.19;5025939;28;20045;-75
2022/01/28 03:22:12;;;;;;;19.75;1.02;;;;;;;3.29;95.31;102775.47;5024805;28;20086;-74
2022/01/28 03:24:41;;;;;;;4.85;0.95;;;;;;;3.20;95.97;102777.38;5028545;28;20124;-73
2022/01/28 03:27:15;;;;;;;2.53;0.68;;;;;;;3.19;96.28;102778.25;5038553;28;20048;-73
2022/01/28 03:29:41;;;;;;;2.92;0.65;;;;;;;3.09;95.91;102786.19;5021280;28;20068;-74
2022/01/28 03:32:08;;;;;;;6.00;2.15;;;;;;;3.20;96.10;102783.41;5023034;28;20060;-73
2022/01/28 03:34:35;;;;;;;2.60;1.23;;;;;;;3.11;96.43;102794.81;5025710;28;20045;-75
2022/01/28 03:37:02;;;;;;;10.40;1.23;;;;;;;3.15;96.83;102799.09;5025491;28;20132;-73
2022/01/28 03:39:28;;;;;;;2.00;0.60;;;;;;;3.04;96.63;102804.44;5022396;28;20057;-74
2022/01/28 03:41:56;;;;;;;8.70;1.27;;;;;;;2.98;97.18;102808.88;5025961;28;20053;-73
2022/01/28 03:44:23;;;;;;;3.35;0.60;;;;;;;3.17;97.05;102811.16;5022527;28;20055;-73
2022/01/28 03:46:50;;;;;;;2.88;0.70;;;;;;;3.03;96.58;102812.25;5025741;28;20064;-73
2022/01/28 03:49:16;;;;;;;0.75;0.40;;;;;;;2.89;97.37;102819.41;5023068;28;20105;-73
2022/01/28 03:51:45;;;;;;;0.30;0.20;;;;;;;2.94;97.41;102817.59;5021031;28;20385;-74
2022/01/28 03:54:12;;;;;;;3.42;0.90;;;;;;;2.82;97.26;102822.97;5026340;28;20042;-74
2022/01/28 03:56:39;;;;;;;3.03;0.75;;;;;;;2.81;97.71;102821.25;5026784;28;20096;-72
2022/01/28 03:59:07;;;;;;;10.15;0.77;;;;;;;2.90;97.91;102815.94;5025206;28;20450;-74
2022/01/28 04:01:37;;;;;;;2.45;0.60;;;;;;;2.82;97.58;102823.81;5024188;28;20729;-73
2022/01/28 04:12:22;;;;;;;0.40;0.28;;;;;;;2.89;98.58;102835.81;5023883;28;20049;-74
2022/01/28 04:15:04;;;;;;;6.28;0.40;;;;;;;2.85;98.73;102848.84;5028846;28;20102;-73
2022/01/28 04:17:31;;;;;;;1.85;1.40;;;;;;;2.93;98.30;102845.28;5025006;28;20040;-73
2022/01/28 04:19:58;;;;;;;0.68;0.47;;;;;;;3.07;97.95;102855.47;5025609;28;20151;-74
2022/01/28 04:22:25;;;;;;;6.80;0.85;;;;;;;2.90;97.86;102862.66;5023763;28;20119;-73
2022/01/28 04:24:52;;;;;;;2.90;1.63;;;;;;;2.83;98.38;102855.84;5022125;28;20772;-74
2022/01/28 04:27:19;;;;;;;3.95;0.93;;;;;;;2.78;98.40;102857.63;5029868;28;20759;-73
2022/01/28 04:29:47;;;;;;;2.83;0.60;;;;;;;2.87;98.36;102867.88;5022415;28;20059;-73
2022/01/28 04:32:15;;;;;;;12.40;2.75;;;;;;;2.91;98.64;102870.41;5024206;28;20049;-74
2022/01/28 04:34:41;;;;;;;4.22;0.85;;;;;;;2.88;98.55;102874.78;5021058;28;20112;-73
2022/01/28 04:37:17;;;;;;;0.80;0.80;;;;;;;2.96;98.17;102878.13;5021468;28;20216;-73
2022/01/28 04:39:50;;;;;;;2.05;0.60;;;;;;;2.76;98.71;102864.56;5026892;28;20092;-74
2022/01/28 04:42:31;;;;;;;7.00;1.13;;;;;;;2.78;98.67;102870.59;5026326;28;20053;-74
2022/01/28 04:45:04;;;;;;;13.05;0.43;;;;;;;2.84;98.68;102873.97;5022832;28;20128;-73
2022/01/28 04:47:40;;;;;;;11.68;1.17;;;;;;;2.95;98.35;102877.28;5026171;28;20049;-74
2022/01/28 04:50:16;;;;;;;4.15;0.45;;;;;;;2.95;98.07;102886.78;5024382;28;20059;-73
2022/01/28 04:53:09;;;;;;;7.18;1.05;;;;;;;2.82;98.48;102880.06;5025417;28;20052;-72
2022/01/28 04:58:37;;;;;;;0.30;0.30;;;;;;;2.77;98.64;102892.22;5021332;28;20058;-74
2022/01/28 05:01:23;;;;;;;2.17;1.17;;;;;;;2.76;98.73;102880.13;5024419;28;20080;-73
2022/01/28 05:04:04;;;;;;;9.07;0.57;;;;;;;2.71;99.18;102887.13;5043437;28;20087;-73
2022/01/28 05:06:53;;;;;;;14.65;1.00;;;;;;;2.77;98.98;102894.81;5027343;28;20064;-73
2022/01/28 05:09:55;;;;;;;2.85;0.40;;;;;;;2.58;99.26;102903.75;5024796;28;20191;-73
2022/01/28 05:12:55;;;;;;;6.15;1.27;;;;;;;2.64;99.54;102909.69;5028500;28;20041;-73
2022/01/28 05:15:45;;;;;;;0.32;0.32;;;;;;;2.62;99.66;102908.00;5023797;28;20037;-73
2022/01/28 05:24:09;;;;;;;4.10;1.77;;;;;;;2.63;99.92;102914.91;5031212;28;20052;-73
2022/01/28 05:26:38;;;;;;;8.70;1.10;;;;;;;2.57;99.86;102930.56;5045116;28;20040;-73
2022/01/28 05:29:08;;;;;;;1.33;0.80;;;;;;;2.65;100.00;102933.91;5050799;28;20341;-72
2022/01/28 05:31:34;;;;;;;0.75;0.32;;;;;;;2.51;99.98;102940.97;5038598;28;20041;-72
2022/01/28 05:34:01;;;;;;;1.23;0.55;;;;;;;2.40;100.00;102941.09;5028632;28;20116;-73
2022/01/28 05:36:29;;;;;;;5.78;1.45;;;;;;;2.30;100.00;102946.41;5025075;28;20107;-72
2022/01/28 05:38:56;;;;;;;3.90;1.45;;;;;;;2.14;100.00;102955.22;5049421;28;20173;-71
2022/01/28 05:41:23;;;;;;;2.08;1.15;;;;;;;2.15;100.00;102964.72;5033785;28;20055;-72
2022/01/28 05:43:49;;;;;;;2.47;0.98;;;;;;;2.06;99.91;102961.34;5050791;28;20131;-71
2022/01/28 05:46:22;;;;;;;0.50;0.45;;;;;;;2.07;100.00;102976.91;5031598;28;20042;-74
2022/01/28 05:48:49;;;;;;;4.80;1.38;;;;;;;2.04;100.00;102974.31;5035700;28;20053;-72
2022/01/28 05:51:16;;;;;;;0.90;0.75;;;;;;;1.97;100.00;102975.25;5030351;28;20169;-73
2022/01/28 05:53:44;;;;;;;13.10;1.08;;;;;;;2.00;100.00;102985.59;5030415;28;20036;-72
2022/01/28 05:56:11;;;;;;;3.00;1.23;;;;;;;1.92;100.00;102990.00;5039787;28;20041;-71
2022/01/28 05:58:38;;;;;;;0.35;0.28;;;;;;;1.80;100.00;102990.06;5034500;28;20044;-73
2022/01/28 06:01:04;;;;;;;0.68;0.43;;;;;;;1.80;100.00;102990.06;5032430;28;20098;-73
2022/01/28 06:03:31;;;;;;;1.67;0.80;;;;;;;1.86;100.00;102994.34;5023640;28;20072;-73
2022/01/28 06:05:57;;;;;;;2.03;0.80;;;;;;;1.86;100.00;102984.84;5051760;28;20139;-72
2022/01/28 06:08:24;;;;;;;0.70;0.60;;;;;;;1.74;100.00;102997.91;5027999;28;20049;-73
2022/01/28 06:10:52;;;;;;;1.15;0.65;;;;;;;1.76;100.00;102997.88;5035038;28;20041;-71
2022/01/28 06:13:21;;;;;;;0.63;0.52;;;;;;;1.69;100.00;103004.81;5033406;28;20041;-73
2022/01/28 06:15:48;;;;;;;4.90;1.40;;;;;;;1.65;100.00;103010.91;5045598;28;20049;-71
2022/01/28 06:18:15;;;;;;;2.65;1.67;;;;;;;1.63;100.00;103010.06;5034307;28;20037;-72
2022/01/28 06:20:43;;;;;;;5.68;1.17;;;;;;;1.69;100.00;103020.38;5033079;28;20458;-71
2022/01/28 06:23:13;;;;;;;5.85;2.67;;;;;;;1.75;100.00;103020.34;5029150;28;20053;-73
2022/01/28 06:25:40;;;;;;;2.28;1.10;;;;;;;1.77;100.00;103021.19;5030645;28;20052;-73
2022/01/28 06:28:08;;;;;;;1.17;0.60;;;;;;;1.73;100.00;103024.69;5033188;28;20039;-70
2022/01/28 06:30:35;;;;;;;0.90;0.68;;;;;;;1.76;100.00;103028.97;5033716;28;20052;-70
2022/01/28 06:33:01;;;;;;;2.92;1.17;;;;;;;1.88;100.00;103044.44;5035135;28;20500;-71
2022/01/28 06:35:28;;;;;;;0.88;0.68;;;;;;;1.92;100.00;103036.63;5029743;28;20045;-74
2022/01/28 06:37:55;;;;;;;8.20;1.05;;;;;;;1.94;100.00;103032.28;5038408;28;20053;-74
2022/01/28 06:40:21;;;;;;;14.60;1.35;;;;;;;1.92;100.00;103041.81;5033304;28;20041;-74
2022/01/28 06:42:48;;;;;;;1.08;0.65;;;;;;;1.88;100.00;103045.28;5038370;28;20136;-73
2022/01/28 06:45:16;;;;;;;1.10;0.70;;;;;;;1.77;100.00;103043.66;5029373;28;20052;-74
2022/01/28 06:47:43;;;;;;;4.68;1.08;;;;;;;1.71;100.00;103060.09;5039840;28;20072;-75
2022/01/28 06:50:10;;;;;;;1.85;1.17;;;;;;;1.65;100.00;103070.50;5034110;28;20049;-73
2022/01/28 06:52:38;;;;;;;0.50;0.40;;;;;;;1.69;100.00;103064.41;5040785;28;20049;-73
2022/01/28 06:55:05;;;;;;;1.08;0.90;;;;;;;1.70;100.00;103063.53;5030092;28;20135;-74
2022/01/28 06:57:32;;;;;;;4.00;1.42;;;;;;;1.85;100.00;103073.81;5043574;28;20050;-74
2022/01/28 06:59:59;;;;;;;3.40;1.05;;;;;;;1.93;100.00;103074.59;5044892;28;20044;-74
2022/01/28 07:02:27;;;;;;;6.47;1.40;;;;;;;1.89;100.00;103064.28;5042591;28;20077;-73
2022/01/28 07:04:54;;;;;;;1.30;0.40;;;;;;;1.80;100.00;103072.97;5042070;28;20048;-74
2022/01/28 07:07:22;;;;;;;0.70;0.40;;;;;;;1.81;100.00;103077.31;5037830;28;20041;-73
2022/01/28 07:09:49;;;;;;;1.10;0.75;;;;;;;1.78;100.00;103085.09;5046613;28;20057;-72
2022/01/28 07:12:16;;;;;;;0.88;0.77;;;;;;;1.80;100.00;103083.34;5041481;28;20065;-75
2022/01/28 07:14:42;;;;;;;1.85;0.90;;;;;;;1.96;100.00;103090.16;5035346;28;20282;-73
2022/01/28 07:17:09;;;;;;;0.75;0.60;;;;;;;2.10;100.00;103095.25;5038923;28;20063;-73
2022/01/28 07:19:37;;;;;;;6.88;1.15;;;;;;;2.10;100.00;103100.44;5041179;28;20116;-74
2022/01/28 07:22:05;;;;;;;4.88;1.20;;;;;;;2.15;100.00;103102.13;5036028;28;20040;-74
2022/01/28 07:24:31;;;;;;;0.85;0.52;;;;;;;2.20;100.00;103110.72;5041703;28;20048;-73
2022/01/28 07:26:58;;;;;;;3.78;1.50;;;;;;;2.30;100.00;103109.78;5038314;28;20051;-73
2022/01/28 07:29:28;;;;;;;4.10;1.02;;;;;;;2.41;100.00;103102.78;5040904;28;20037;-73
2022/01/28 07:31:55;;;;;;;8.95;2.00;;;;;;;2.48;100.00;103115.66;5049086;28;20069;-75
2022/01/28 07:34:22;;;;;;;4.70;1.70;;;;;;;2.50;100.00;103115.66;5037773;28;20037;-74
2022/01/28 07:36:51;;;;;;;1.90;1.17;;;;;;;2.44;100.00;103110.50;5041294;28;20049;-73
2022/01/28 07:39:18;;;;;;;2.20;1.15;;;;;;;2.38;100.00;103110.56;5039809;28;20393;-73
2022/01/28 07:41:48;;;;;;;1.10;0.90;;;;;;;2.35;100.00;103105.41;5043743;28;20830;-74
2022/01/28 07:44:14;;;;;;;3.10;2.45;;;;;;;2.51;100.00;103104.38;5040489;28;20099;-73
2022/01/28 07:46:41;;;;;;;6.90;1.95;;;;;;;2.71;100.00;103110.28;5042538;28;20058;-74
2022/01/28 07:49:08;;;;;;;31.63;1.55;;;;;;;2.73;100.00;103111.97;5035276;28;20129;-74
2022/01/28 07:51:35;;;;;;;1.90;1.30;;;;;;;2.81;100.00;103117.09;5043087;28;20582;-74
2022/01/28 07:54:04;;;;;;;2.00;1.48;;;;;;;2.96;100.00;103120.38;5038704;28;20126;-73
2022/01/28 07:56:31;;;;;;;4.78;1.35;;;;;;;3.10;100.00;103122.84;5045342;28;20048;-74
2022/01/28 07:59:05;;;;;;;1.65;1.10;;;;;;;3.19;100.00;103126.22;5046908;28;20045;-75
2022/01/28 08:01:32;;;;;;;8.52;2.17;;;;;;;3.17;100.00;103121.00;5050929;28;20100;-73
2022/01/28 08:03:59;;;;;;;1.40;1.10;;;;;;;3.23;100.00;103122.69;5052634;28;20040;-74
2022/01/28 08:06:26;;;;;;;4.75;1.30;;;;;;;3.49;100.00;103131.88;5055571;28;20033;-73
2022/01/28 08:08:53;;;;;;;1.15;0.63;;;;;;;3.52;100.00;103136.19;5035815;28;20100;-74
2022/01/28 08:11:21;;;;;;;6.80;2.10;;;;;;;3.64;100.00;103136.03;5037498;28;20141;-75
2022/01/28 08:13:48;;;;;;;3.88;2.55;;;;;;;3.72;100.00;103137.66;5043119;28;20077;-73
2022/01/28 08:16:14;;;;;;;20.15;1.35;;;;;;;3.81;100.00;103123.66;5036321;28;20063;-74
2022/01/28 08:18:41;;;;;;;3.03;1.85;;;;;;;3.97;100.00;103136.44;5034800;28;20049;-74
2022/01/28 08:21:08;;;;;;;2.28;1.10;;;;;;;4.06;100.00;103147.56;5026980;28;20060;-75
2022/01/28 08:23:35;;;;;;;6.43;1.85;;;;;;;4.24;100.00;103151.63;5039162;28;20041;-74
2022/01/28 08:26:02;;;;;;;1.00;0.82;;;;;;;4.45;98.33;103146.09;5039505;28;20052;-75
2022/01/28 08:28:30;;;;;;;1.23;0.73;;;;;;;4.83;98.17;103150.63;5036333;28;20052;-74
2022/01/28 08:30:57;;;;;;;22.33;2.92;;;;;;;4.94;96.29;103153.91;5026936;28;20045;-74
2022/01/28 08:33:23;;;;;;;3.30;1.70;;;;;;;4.92;94.08;103160.91;5038288;28;20037;-74
2022/01/28 08:35:53;;;;;;;1.95;1.35;;;;;;;4.83;94.03;103155.84;5050321;28;20055;-73
2022/01/28 08:38:27;;;;;;;15.05;1.90;;;;;;;4.88;94.29;103153.16;5037064;28;20040;-74
2022/01/28 08:40:56;;;;;;;1.50;1.13;;;;;;;4.89;93.18;103160.09;5042364;28;20041;-75
2022/01/28 08:43:23;;;;;;;3.75;1.27;;;;;;;5.00;93.09;103160.78;5037970;28;20041;-74
2022/01/28 08:45:51;;;;;;;3.13;1.75;;;;;;;5.14;92.55;103171.78;5038531;28;20116;-74
2022/01/28 08:48:18;;;;;;;1.60;1.25;;;;;;;5.67;91.24;103164.63;5036454;28;20064;-74
2022/01/28 08:50:45;;;;;;;2.03;1.25;;;;;;;5.85;88.93;103164.28;5041420;28;20108;-74
2022/01/28 08:53:12;;;;;;;2.67;1.38;;;;;;;5.87;88.92;103158.16;5043467;28;20049;-73
2022/01/28 08:55:39;;;;;;;7.25;1.67;;;;;;;6.20;87.54;103152.19;5037455;28;20056;-75
2022/01/28 08:58:07;;;;;;;10.45;2.35;;;;;;;6.31;87.10;103171.06;5038079;28;20099;-74
2022/01/28 09:00:33;;;;;;;4.00;1.38;;;;;;;6.70;85.07;103164.88;5037824;28;20049;-74
2022/01/28 09:03:01;;;;;;;2.08;1.67;;;;;;;6.48;85.70;103167.16;5036872;28;20049;-73
2022/01/28 09:05:29;;;;;;;6.03;2.00;;;;;;;6.69;85.37;103169.22;5051799;28;20424;-74
2022/01/28 09:07:56;;;;;;;4.45;2.28;;;;;;;7.14;83.69;103178.50;5026354;28;20045;-74
2022/01/28 09:10:29;;;;;;;4.25;2.30;;;;;;;7.37;81.79;103170.91;5036862;28;20051;-74
2022/01/28 09:15:54;;;;;;;4.30;1.48;;;;;;;7.19;82.23;103166.16;5120689;27;20163;-74
2022/01/28 09:18:21;;;;;;;2.35;1.67;;;;;;;7.15;82.23;103159.31;5110456;28;20047;-74
2022/01/28 09:20:48;;;;;;;5.55;2.42;;;;;;;6.88;83.66;103165.25;5105897;27;20104;-74
2022/01/28 09:23:15;;;;;;;7.60;2.05;;;;;;;7.12;82.85;103161.16;5107624;27;20138;-75
2022/01/28 09:25:42;;;;;;;2.15;1.05;;;;;;;7.03;83.21;103154.41;5107723;28;20047;-73
2022/01/28 09:28:09;;;;;;;9.00;1.02;;;;;;;6.89;83.64;103161.75;5105490;28;20044;-74
2022/01/28 09:30:36;;;;;;;3.95;1.50;;;;;;;6.89;83.17;103166.13;5113433;27;20063;-74
2022/01/28 09:33:04;;;;;;;5.55;1.58;;;;;;;7.17;83.04;103163.59;5107931;28;20035;-73
2022/01/28 09:35:31;;;;;;;3.75;1.13;;;;;;;7.81;81.10;103168.72;5103553;27;20051;-74
2022/01/28 09:37:58;;;;;;;5.07;2.53;;;;;;;8.24;78.57;103159.59;5109892;27;20043;-74
2022/01/28 09:40:25;;;;;;;13.27;2.08;;;;;;;8.40;77.38;103170.41;5114476;27;20466;-76
2022/01/28 09:42:52;;;;;;;4.93;1.48;;;;;;;8.06;76.43;103169.72;5108986;27;20116;-74
2022/01/28 09:45:21;;;;;;;2.28;1.20;;;;;;;7.54;78.51;103179.13;5108848;27;20648;-74
2022/01/28 09:47:51;;;;;;;14.82;2.17;;;;;;;7.11;79.75;103170.75;5106211;27;20425;-74
2022/01/28 09:50:22;;;;;;;6.25;2.20;;;;;;;8.09;77.73;103175.72;5115506;28;20058;-74
2022/01/28 09:52:49;;;;;;;6.70;1.77;;;;;;;8.65;73.84;103166.97;5105817;28;20051;-74
2022/01/28 09:55:16;;;;;;;5.38;1.20;;;;;;;9.10;72.23;103163.66;5113084;28;20044;-74
2022/01/28 09:57:42;;;;;;;2.08;1.05;;;;;;;9.17;72.57;103166.91;5110308;27;20055;-74
2022/01/28 10:00:11;;;;;;;5.80;1.20;;;;;;;8.79;73.22;103175.22;5111344;28;20063;-73
2022/01/28 10:02:58;;;;;;;3.55;1.75;;;;;;;8.10;75.31;103173.97;5111579;27;20083;-74
2022/01/28 10:05:31;;;;;;;6.18;1.00;;;;;;;7.55;77.96;103180.84;5106091;28;20048;-74
2022/01/28 10:08:19;;;;;;;3.95;1.50;;;;;;;7.81;78.43;103199.28;5104949;28;20056;-75
2022/01/28 10:10:49;;;;;;;7.22;1.70;;;;;;;8.31;76.22;103187.28;5107977;28;20142;-75
2022/01/28 10:13:21;;;;;;;10.88;1.90;;;;;;;8.44;75.47;103187.75;5107189;27;20089;-74
2022/01/28 10:15:58;;;;;;;5.78;1.58;;;;;;;8.56;75.35;103201.34;5114420;28;20062;-74
2022/01/28 10:18:43;;;;;;;1.35;1.02;;;;;;;8.45;74.35;103198.19;5109377;27;20043;-74
2022/01/28 10:21:35;;;;;;;6.18;1.20;;;;;;;8.02;76.92;103195.13;5107541;28;20088;-74
2022/01/28 10:24:05;;;;;;;3.85;1.08;;;;;;;7.82;78.61;103196.63;5111095;28;20119;-74
2022/01/28 10:26:33;;;;;;;12.05;1.33;;;;;;;8.21;77.61;103196.31;5103001;28;20047;-74
2022/01/28 10:29:00;;;;;;;8.05;1.23;;;;;;;9.27;73.90;103186.66;5103055;27;20099;-74
2022/01/28 10:31:43;;;;;;;9.32;1.77;;;;;;;9.91;70.07;103185.09;5100326;28;20040;-75
2022/01/28 10:34:11;;;;;;;1.25;0.70;;;;;;;9.75;70.53;103183.97;5098322;27;20086;-77
2022/01/28 10:36:39;;;;;;;2.97;1.85;;;;;;;9.33;71.23;103194.31;5094573;28;20230;-73
2022/01/28 10:39:13;;;;;;;19.08;1.77;;;;;;;9.34;72.07;103196.88;5116469;28;20039;-74
2022/01/28 10:41:49;;;;;;;1.70;0.90;;;;;;;8.73;72.90;103203.38;5110799;28;20101;-74
2022/01/28 10:44:16;;;;;;;7.10;1.50;;;;;;;8.43;75.14;103197.38;5113598;28;20092;-74
2022/01/28 10:46:51;;;;;;;2.47;1.05;;;;;;;8.50;74.91;103192.81;5093626;28;20058;-74
2022/01/28 10:49:17;;;;;;;2.13;0.80;;;;;;;8.67;73.70;103195.75;5098593;27;20040;-75
2022/01/28 10:51:49;;;;;;;5.18;1.92;;;;;;;8.65;74.92;103194.91;5088907;28;20044;-73
2022/01/28 10:54:21;;;;;;;5.85;1.38;;;;;;;9.14;72.88;103195.88;5099477;28;20130;-73
2022/01/28 10:56:54;;;;;;;2.10;0.65;;;;;;;9.44;71.07;103189.53;5076126;28;20495;-74
2022/01/28 10:59:23;;;;;;;5.22;1.60;;;;;;;9.41;70.10;103187.88;5089405;28;20119;-74
2022/01/28 11:01:51;;;;;;;6.00;1.77;;;;;;;9.52;71.70;103195.38;5087765;28;20482;-74
2022/01/28 11:04:19;;;;;;;0.70;0.57;;;;;;;9.27;70.86;103205.00;5090737;28;20442;-73
2022/01/28 11:06:48;;;;;;;8.68;1.73;;;;;;;9.15;71.38;103200.22;5092564;27;20043;-73
2022/01/28 11:09:17;;;;;;;2.22;1.23;;;;;;;8.82;73.00;103194.31;5092097;28;20085;-75
2022/01/28 11:11:46;;;;;;;4.05;1.65;;;;;;;8.99;72.54;103194.63;5088062;28;20117;-74
2022/01/28 11:14:12;;;;;;;5.13;1.45;;;;;;;9.28;71.52;103202.31;5090942;28;20044;-74
2022/01/28 11:16:39;;;;;;;10.02;2.05;;;;;;;9.62;71.25;103192.34;5100419;28;20070;-74
2022/01/28 11:19:09;;;;;;;2.67;0.95;;;;;;;9.83;70.34;103187.16;5088236;28;20054;-73
2022/01/28 11:21:51;;;;;;;2.78;1.63;;;;;;;9.70;70.73;103193.78;5091323;27;20039;-73
2022/01/28 11:24:34;;;;;;;5.30;1.95;;;;;;;10.06;70.48;103183.72;5087991;28;20044;-75
2022/01/28 11:27:02;;;;;;;;;;;;;;;10.17;69.95;103178.91;5096711;27;20043;-75
2022/01/28 11:29:29;;;;;;;7.43;1.90;;;;;;;10.34;67.75;103173.84;5089089;28;19932;-75
2022/01/28 11:31:57;;;;;;;5.25;1.45;;;;;;;9.71;66.65;103177.13;5099352;28;20070;-74
2022/01/28 11:34:25;;;;;;;13.18;0.90;;;;;;;9.05;69.03;103178.66;5086450;28;20048;-74
2022/01/28 11:36:55;;;;;;;2.22;1.40;;;;;;;8.68;70.26;103169.47;5099088;28;20122;-74
2022/01/28 11:39:29;;;;;;;1.70;1.02;;;;;;;8.17;72.34;103162.44;5090728;28;20421;-75
2022/01/28 11:42:07;;;;;;;5.90;1.40;;;;;;;7.92;73.54;103158.81;5093673;28;20417;-75
2022/01/28 11:44:43;;;;;;;3.92;1.85;;;;;;;7.72;74.55;103161.16;5094477;28;20043;-74
2022/01/28 11:47:09;;;;;;;12.00;0.88;;;;;;;7.64;75.10;103157.06;5098865;28;20089;-73
2022/01/28 11:49:52;;;;;;;2.47;0.70;;;;;;;7.57;74.68;103152.91;5086176;28;20040;-73
2022/01/28 11:52:25;;;;;;;5.10;1.23;;;;;;;7.55;75.12;103154.69;5097521;28;20052;-74
2022/01/28 11:54:54;;;;;;;6.65;1.10;;;;;;;7.58;75.20;103146.78;5091425;27;20038;-73
2022/01/28 11:57:23;;;;;;;3.92;1.70;;;;;;;7.95;75.09;103136.03;5092146;28;20554;-74
2022/01/28 11:59:49;;;;;;;3.08;0.88;;;;;;;8.61;72.14;103139.16;5091979;28;20054;-75
2022/01/28 12:02:21;;;;;;;1.73;0.57;;;;;;;9.40;68.71;103132.88;5094144;28;20093;-74
2022/01/28 12:04:47;;;;;;;3.47;1.00;;;;;;;9.43;68.94;103130.09;5092978;27;20458;-74
2022/01/28 12:07:18;;;;;;;8.07;1.63;;;;;;;9.71;68.34;103124.66;5096113;28;20118;-75
2022/01/28 12:09:49;;;;;;;4.53;0.80;;;;;;;9.96;66.52;103121.91;5088469;27;20050;-74
2022/01/28 12:12:38;;;;;;;9.80;1.98;;;;;;;9.74;66.67;103127.13;5090663;28;20043;-74
2022/01/28 12:15:12;;;;;;;3.95;0.82;;;;;;;9.97;64.84;103123.63;5095616;28;20063;-74
2022/01/28 12:17:41;;;;;;;3.83;1.02;;;;;;;10.35;64.69;103123.00;5094129;28;20130;-74
2022/01/28 12:20:23;;;;;;;4.88;1.00;;;;;;;10.42;63.54;103128.78;5089563;27;20086;-74
2022/01/28 12:23:05;;;;;;;7.30;1.52;;;;;;;9.63;63.89;103141.56;5089615;28;20402;-74
2022/01/28 12:25:50;;;;;;;0.80;0.57;;;;;;;9.37;65.29;103125.09;5094734;27;20043;-74